Time;durP1;ratioP1;P1;durP2;ratioP2;P2;SDS_P1;SDS_P2;PMS_P1;PMS_P2;Temp;Humidity;BMP_temperature;BMP_pressure;BME280_temperature;BME280_humidity;BME280_pressure;Samples;Min_cycle;Max_cycle;Signal;HPM_P1;HPM_P2
2023/10/12 00:01:58;;;;;;;8.35;5.85;;;16.90;99.90;;;;;;4960387;28;20031;-86
2023/10/12 00:04:24;;;;;;;8.60;6.25;;;16.90;99.90;;;;;;4951615;28;20054;-87
2023/10/12 00:06:51;;;;;;;8.52;5.88;;;16.80;99.90;;;;;;4949479;28;20026;-86
2023/10/12 00:09:19;;;;;;;8.15;6.05;;;16.80;99.90;;;;;;4934287;28;20509;-86
2023/10/12 00:11:57;;;;;;;8.68;6.15;;;16.80;99.90;;;;;;4967677;28;20027;-88
2023/10/12 00:14:32;;;;;;;10.15;6.57;;;16.70;99.90;;;;;;4976740;28;20039;-86
2023/10/12 00:16:58;;;;;;;12.40;6.57;;;16.80;99.90;;;;;;4958289;28;20022;-86
2023/10/12 00:19:24;;;;;;;7.88;5.32;;;16.70;99.90;;;;;;4953461;28;20498;-86
2023/10/12 00:22:00;;;;;;;11.25;7.18;;;16.70;99.90;;;;;;4953323;28;20070;-86
2023/10/12 00:24:26;;;;;;;10.38;7.72;;;16.70;99.90;;;;;;4935066;28;20035;-87
2023/10/12 00:26:53;;;;;;;12.05;8.07;;;16.70;99.90;;;;;;4932914;28;20039;-87
2023/10/12 00:29:19;;;;;;;11.82;7.25;;;16.60;99.90;;;;;;4951918;28;20146;-87
2023/10/12 00:31:47;;;;;;;14.35;8.70;;;16.60;99.90;;;;;;4953902;28;20114;-86
2023/10/12 00:34:14;;;;;;;13.55;7.65;;;16.60;99.90;;;;;;4938220;28;20550;-86
2023/10/12 00:36:41;;;;;;;16.42;8.45;;;16.60;99.90;;;;;;4969225;28;20031;-88
2023/10/12 00:39:10;;;;;;;11.57;8.30;;;16.60;99.90;;;;;;4936407;28;20122;-87
2023/10/12 00:41:44;;;;;;;14.90;8.75;;;16.60;99.90;;;;;;4979413;28;20360;-89
2023/10/12 00:44:12;;;;;;;14.02;9.07;;;16.60;99.90;;;;;;4936199;28;20374;-86
2023/10/12 00:46:58;;;;;;;15.10;9.10;;;16.50;99.90;;;;;;4954834;28;20031;-85
2023/10/12 00:49:27;;;;;;;13.82;9.32;;;16.50;99.90;;;;;;4936871;28;20158;-86
2023/10/12 00:52:10;;;;;;;11.77;7.28;;;16.50;99.90;;;;;;4935424;28;20049;-86
2023/10/12 00:57:03;;;;;;;18.85;10.90;;;16.40;99.90;;;;;;4954220;28;20196;-88
2023/10/12 00:59:31;;;;;;;17.88;10.10;;;16.40;99.90;;;;;;4954716;28;20031;-87
2023/10/12 01:02:15;;;;;;;19.63;11.45;;;16.40;99.90;;;;;;4937724;28;20384;-88
2023/10/12 01:04:41;;;;;;;16.83;10.63;;;16.40;99.90;;;;;;4935251;28;20047;-85
2023/10/12 01:07:10;;;;;;;16.08;11.23;;;16.40;99.90;;;;;;4950956;28;20030;-88
2023/10/12 01:09:39;;;;;;;19.08;11.82;;;16.40;99.90;;;;;;4953179;28;20619;-88
2023/10/12 01:12:17;;;;;;;23.02;14.57;;;16.40;99.90;;;;;;4968105;28;20031;-89
2023/10/12 01:14:48;;;;;;;21.55;12.77;;;16.40;99.90;;;;;;4967145;28;20035;-87
2023/10/12 01:17:24;;;;;;;21.50;14.40;;;16.40;99.90;;;;;;4934506;28;20027;-91
2023/10/12 01:19:51;;;;;;;17.92;12.07;;;16.30;99.90;;;;;;4964640;28;20055;-91
2023/10/12 01:22:25;;;;;;;24.58;14.73;;;16.30;99.90;;;;;;4934187;28;20392;-89
2023/10/12 01:27:21;;;;;;;20.42;12.88;;;16.30;99.90;;;;;;4970816;28;20030;-90
2023/10/12 01:29:52;;;;;;;25.88;15.70;;;16.30;99.90;;;;;;4969750;28;20035;-88
2023/10/12 01:35:02;;;;;;;30.05;17.70;;;16.30;99.90;;;;;;4973062;28;20031;-89
2023/10/12 01:37:28;;;;;;;19.35;12.77;;;16.30;99.90;;;;;;4952841;28;20145;-90
2023/10/12 01:39:59;;;;;;;23.63;13.30;;;16.30;99.90;;;;;;4931780;28;20174;-89
2023/10/12 01:45:38;;;;;;;19.50;12.68;;;16.30;99.90;;;;;;4953083;28;20034;-90
2023/10/12 01:48:11;;;;;;;20.27;12.63;;;16.30;99.90;;;;;;4954715;28;20054;-88
2023/10/12 01:50:37;;;;;;;14.88;9.68;;;16.30;99.90;;;;;;4953041;28;20501;-90
2023/10/12 01:55:45;;;;;;;17.85;12.02;;;16.30;99.90;;;;;;4951484;28;20022;-87
2023/10/12 01:58:12;;;;;;;17.55;11.88;;;16.20;99.90;;;;;;4970842;28;20413;-88
2023/10/12 02:00:42;;;;;;;18.00;12.75;;;16.20;99.90;;;;;;4968862;28;20472;-91
2023/10/12 02:03:20;;;;;;;23.63;15.88;;;16.20;99.90;;;;;;4933429;28;20038;-89
2023/10/12 02:05:58;;;;;;;20.83;14.75;;;16.20;99.90;;;;;;4956077;28;20023;-88
2023/10/12 02:11:10;;;;;;;28.70;17.05;;;16.20;99.90;;;;;;4955353;28;20434;-94
2023/10/12 02:13:36;;;;;;;24.63;16.55;;;16.20;99.90;;;;;;4937438;28;20042;-89
2023/10/12 02:16:07;;;;;;;25.52;16.48;;;16.20;99.90;;;;;;4953038;28;20026;-90
2023/10/12 02:18:34;;;;;;;29.00;18.05;;;16.20;99.90;;;;;;4948784;28;20072;-89
2023/10/12 02:21:09;;;;;;;24.98;17.50;;;16.20;99.90;;;;;;4972126;28;20034;-91
2023/10/12 02:23:53;;;;;;;26.60;17.77;;;16.20;99.90;;;;;;4954075;28;20038;-91
2023/10/12 02:26:38;;;;;;;28.40;17.88;;;16.10;99.90;;;;;;4956027;28;20030;-91
2023/10/12 02:34:26;;;;;;;24.63;15.65;;;16.10;99.90;;;;;;4970971;28;20270;-91
2023/10/12 02:39:31;;;;;;;21.77;14.57;;;16.10;99.90;;;;;;4951631;28;20403;-87
2023/10/12 02:42:59;;;;;;;26.33;16.50;;;16.10;99.90;;;;;;4950958;28;20038;-90
2023/10/12 02:47:23;;;;;;;18.92;12.57;;;16.00;99.90;;;;;;4969813;28;20034;-92
2023/10/12 02:50:01;;;;;;;20.77;12.40;;;16.10;99.90;;;;;;4948181;28;20023;-91
2023/10/12 02:52:32;;;;;;;20.03;14.20;;;16.10;99.90;;;;;;4950567;28;20492;-90
2023/10/12 02:55:08;;;;;;;18.52;13.02;;;16.10;99.90;;;;;;4965566;28;20051;-90
2023/10/12 02:57:34;;;;;;;19.02;11.93;;;16.10;99.90;;;;;;4944068;28;20039;-92
2023/10/12 03:00:09;;;;;;;13.68;11.25;;;16.10;99.90;;;;;;4972112;28;20556;-89
2023/10/12 03:02:35;;;;;;;15.40;11.23;;;16.10;99.90;;;;;;4930952;28;20035;-89
2023/10/12 03:05:04;;;;;;;19.60;13.85;;;16.10;99.90;;;;;;4931882;28;20039;-89
2023/10/12 03:07:31;;;;;;;18.63;14.25;;;16.10;99.90;;;;;;4930593;28;20317;-90
2023/10/12 03:09:59;;;;;;;26.52;16.55;;;16.10;99.90;;;;;;4935006;28;20069;-90
2023/10/12 03:12:25;;;;;;;22.67;15.13;;;16.10;99.90;;;;;;4978792;28;20043;-91
2023/10/12 03:14:54;;;;;;;18.88;13.30;;;16.00;99.90;;;;;;4946168;28;20189;-88
2023/10/12 03:17:20;;;;;;;19.05;12.85;;;16.00;99.90;;;;;;4935487;28;20023;-89
2023/10/12 03:20:14;;;;;;;16.27;12.38;;;16.00;99.90;;;;;;4967536;28;20428;-89
2023/10/12 03:22:43;;;;;;;14.07;11.60;;;16.00;99.90;;;;;;4964841;28;20034;-88
2023/10/12 03:25:37;;;;;;;13.73;10.00;;;16.00;99.90;;;;;;4963893;28;20506;-90
2023/10/12 03:28:12;;;;;;;15.80;9.75;;;16.00;99.90;;;;;;4947186;28;20118;-89
2023/10/12 03:30:43;;;;;;;14.85;11.25;;;16.00;99.90;;;;;;4952545;28;20474;-90
2023/10/12 03:33:15;;;;;;;12.88;8.43;;;16.00;99.90;;;;;;4949434;28;20032;-88
2023/10/12 03:35:53;;;;;;;16.20;11.48;;;16.00;99.90;;;;;;4950013;28;20447;-90
2023/10/12 03:38:19;;;;;;;13.45;8.85;;;15.90;99.90;;;;;;4949033;28;20607;-89
2023/10/12 03:43:26;;;;;;;15.50;8.73;;;15.80;99.90;;;;;;4953616;28;20126;-90
2023/10/12 03:46:17;;;;;;;9.70;6.88;;;15.80;99.90;;;;;;4954834;28;20070;-89
2023/10/12 03:51:24;;;;;;;12.05;7.20;;;15.70;99.90;;;;;;4952266;28;20567;-90
2023/10/12 03:54:11;;;;;;;12.75;6.65;;;15.70;99.90;;;;;;4933075;28;20050;-90
2023/10/12 03:56:39;;;;;;;15.02;6.38;;;15.70;99.90;;;;;;4965807;28;20031;-91
2023/10/12 03:59:12;;;;;;;9.02;6.13;;;15.70;99.90;;;;;;4950683;28;20023;-91
2023/10/12 04:01:41;;;;;;;10.43;5.88;;;15.70;99.90;;;;;;4960487;28;20518;-90
2023/10/12 04:09:31;;;;;;;7.32;3.75;;;15.60;99.90;;;;;;4955586;28;20045;-90
2023/10/12 04:14:49;;;;;;;7.35;3.63;;;15.60;99.90;;;;;;4950889;28;20031;-88
2023/10/12 04:18:06;;;;;;;5.15;3.08;;;15.60;99.90;;;;;;4938034;28;20031;-90
2023/10/12 04:22:43;;;;;;;4.70;2.65;;;15.60;99.90;;;;;;4948530;28;20050;-89
2023/10/12 04:28:17;;;;;;;5.90;2.30;;;15.60;99.90;;;;;;4954872;28;20031;-90
2023/10/12 04:33:24;;;;;;;5.65;2.25;;;15.60;99.90;;;;;;4967342;28;20126;-94
2023/10/12 04:44:25;;;;;;;3.95;2.17;;;15.60;99.90;;;;;;4938841;29;20051;-88
2023/10/12 04:47:04;;;;;;;5.63;2.20;;;15.60;99.90;;;;;;4944478;29;20481;-91
2023/10/12 04:52:15;;;;;;;7.10;3.13;;;15.60;99.90;;;;;;4945812;29;20043;-90
2023/10/12 04:54:59;;;;;;;6.25;2.30;;;15.60;99.90;;;;;;4907745;29;20027;-89
2023/10/12 04:57:38;;;;;;;5.40;2.47;;;15.60;99.90;;;;;;4920924;29;20027;-89
2023/10/12 05:00:12;;;;;;;2.90;1.38;;;15.60;99.90;;;;;;4923282;29;20127;-92
2023/10/12 05:05:37;;;;;;;5.80;2.88;;;15.70;99.90;;;;;;4946442;29;20048;-89
2023/10/12 05:08:01;;;;;;;6.03;2.22;;;15.70;99.90;;;;;;4929466;29;20019;-89
2023/10/12 05:13:10;;;;;;;11.60;8.23;;;15.70;99.90;;;;;;4919461;29;20058;-91
2023/10/12 05:15:39;;;;;;;12.95;9.77;;;15.80;99.90;;;;;;4919193;29;20035;-90
2023/10/12 05:18:13;;;;;;;11.57;7.95;;;15.80;99.90;;;;;;4947214;28;20123;-93
2023/10/12 05:20:42;;;;;;;14.25;11.82;;;15.80;99.90;;;;;;4933881;28;20519;-90
2023/10/12 05:23:08;;;;;;;19.67;14.27;;;15.80;99.90;;;;;;4950545;28;20069;-92
2023/10/12 05:28:27;;;;;;;20.52;17.13;;;15.70;99.90;;;;;;4950404;28;20058;-90
2023/10/12 05:30:55;;;;;;;15.70;13.82;;;15.80;99.90;;;;;;4948868;28;20027;-93
2023/10/12 05:36:00;;;;;;;21.40;17.92;;;15.70;99.90;;;;;;4953421;28;20137;-92
2023/10/12 05:38:34;;;;;;;18.95;16.35;;;15.70;99.90;;;;;;4952285;28;20174;-89
2023/10/12 05:41:01;;;;;;;20.65;14.32;;;15.60;99.90;;;;;;4949295;28;20381;-92
2023/10/12 05:43:30;;;;;;;23.88;16.60;;;15.60;99.90;;;;;;4950289;28;20452;-92
2023/10/12 05:46:01;;;;;;;30.77;22.73;;;15.60;99.90;;;;;;4932784;28;20027;-90
2023/10/12 05:48:27;;;;;;;33.50;22.95;;;15.60;99.90;;;;;;4952527;28;20050;-92
2023/10/12 05:50:53;;;;;;;30.30;23.73;;;15.60;99.90;;;;;;4950118;28;20023;-90
2023/10/12 05:53:20;;;;;;;29.67;23.35;;;15.60;99.90;;;;;;4948546;28;20058;-91
2023/10/12 05:55:49;;;;;;;29.98;22.90;;;15.60;99.90;;;;;;4951613;28;20440;-92
2023/10/12 05:58:15;;;;;;;29.38;22.45;;;15.60;99.90;;;;;;4934934;28;20038;-92
2023/10/12 06:00:44;;;;;;;26.95;22.35;;;15.60;99.90;;;;;;4967917;28;20034;-93
2023/10/12 06:03:15;;;;;;;26.27;19.73;;;15.50;99.90;;;;;;4935439;28;20035;-89
2023/10/12 06:05:44;;;;;;;15.02;12.20;;;15.50;99.90;;;;;;4968004;28;20042;-90
2023/10/12 06:08:12;;;;;;;7.90;5.70;;;15.40;99.90;;;;;;4957066;28;20396;-90
2023/10/12 06:10:41;;;;;;;4.35;2.83;;;15.10;99.90;;;;;;4947507;28;20536;-88
2023/10/12 06:13:09;;;;;;;2.50;1.67;;;15.00;99.90;;;;;;4948501;28;20088;-88
2023/10/12 06:15:42;;;;;;;2.42;0.75;;;14.80;99.90;;;;;;4952152;28;20508;-90
2023/10/12 06:18:21;;;;;;;1.80;1.15;;;14.80;99.90;;;;;;4948177;28;20037;-89
2023/10/12 06:20:58;;;;;;;1.57;0.60;;;14.70;99.90;;;;;;4912038;28;1072494;-89
2023/10/12 06:23:24;;;;;;;1.77;0.85;;;14.60;99.90;;;;;;4950592;28;20405;-89
2023/10/12 06:25:50;;;;;;;1.95;0.30;;;14.50;99.90;;;;;;4947999;28;20034;-88
2023/10/12 06:28:18;;;;;;;0.80;0.30;;;14.10;99.90;;;;;;4968747;28;20419;-94
2023/10/12 06:30:47;;;;;;;0.73;0.20;;;13.90;99.90;;;;;;4976713;28;20034;-85
2023/10/12 06:33:17;;;;;;;0.40;0.15;;;13.80;99.90;;;;;;4975040;28;20022;-85
2023/10/12 06:35:59;;;;;;;;;;;13.90;99.90;;;;;;4953255;28;20031;-90
2023/10/12 06:43:59;;;;;;;1.63;0.28;;;13.60;99.90;;;;;;4951395;28;20094;-91
2023/10/12 06:46:28;;;;;;;3.15;0.52;;;13.60;99.90;;;;;;4951532;28;20055;-86
2023/10/12 06:49:00;;;;;;;1.70;0.30;;;13.40;99.90;;;;;;4936179;28;20037;-91
2023/10/12 06:51:28;;;;;;;2.63;0.30;;;13.30;99.90;;;;;;4948889;28;20061;-89
2023/10/12 06:54:05;;;;;;;1.65;0.22;;;13.30;99.90;;;;;;4951955;28;20027;-87
2023/10/12 06:56:31;;;;;;;1.83;0.20;;;13.20;99.90;;;;;;4965495;28;20077;-88
2023/10/12 07:04:19;;;;;;;1.48;0.20;;;13.30;99.90;;;;;;4946657;28;20366;-88
2023/10/12 07:06:56;;;;;;;2.22;0.20;;;13.50;99.90;;;;;;4950040;28;20041;-87
2023/10/12 07:09:40;;;;;;;1.02;0.20;;;13.50;99.90;;;;;;4953276;28;20045;-89
2023/10/12 07:12:07;;;;;;;1.13;0.20;;;13.50;99.90;;;;;;4963159;28;20035;-86
2023/10/12 07:14:37;;;;;;;1.25;0.20;;;13.40;99.90;;;;;;4951587;28;20559;-89
2023/10/12 07:17:04;;;;;;;1.23;0.20;;;13.40;99.90;;;;;;4946079;28;20026;-87
2023/10/12 07:19:30;;;;;;;1.80;0.40;;;13.40;99.90;;;;;;4952428;28;20035;-87
2023/10/12 07:22:00;;;;;;;1.95;0.20;;;13.40;99.90;;;;;;4951790;28;20042;-88
2023/10/12 07:24:26;;;;;;;1.25;0.20;;;13.50;99.90;;;;;;4961721;28;20094;-87
2023/10/12 07:26:52;;;;;;;1.00;0.20;;;13.40;99.90;;;;;;4969189;28;20106;-86
2023/10/12 07:29:35;;;;;;;0.90;0.10;;;13.40;99.90;;;;;;4966389;28;20114;-85
2023/10/12 07:32:17;;;;;;;1.60;0.20;;;13.50;99.90;;;;;;4960403;28;20027;-86
2023/10/12 07:34:47;;;;;;;1.15;0.40;;;13.50;99.90;;;;;;4948546;28;20035;-86
2023/10/12 07:37:13;;;;;;;0.93;0.10;;;13.50;99.90;;;;;;4961525;28;20053;-86
2023/10/12 07:39:42;;;;;;;0.65;0.10;;;13.50;99.90;;;;;;4950759;28;20035;-86
2023/10/12 07:42:12;;;;;;;1.35;0.20;;;13.50;99.90;;;;;;4963900;28;20038;-86
2023/10/12 07:44:54;;;;;;;;;;;13.50;99.90;;;;;;4976276;28;20404;-87
2023/10/12 07:47:31;;;;;;;1.00;0.10;;;13.50;99.90;;;;;;4946731;28;20298;-86
2023/10/12 07:49:57;;;;;;;0.90;0.10;;;13.50;99.90;;;;;;4946204;28;20082;-86
2023/10/12 07:52:38;;;;;;;0.90;0.10;;;13.50;99.90;;;;;;4943730;28;20034;-85
2023/10/12 07:55:17;;;;;;;1.35;0.10;;;13.50;99.90;;;;;;4949495;28;20396;-86
2023/10/12 07:57:44;;;;;;;0.45;0.10;;;13.50;99.90;;;;;;4932372;28;20039;-85
2023/10/12 08:23:48;;;;;;;0.60;0.20;;;13.70;99.90;;;;;;4966989;28;20049;-86
2023/10/12 08:26:21;;;;;;;0.90;0.30;;;13.60;99.90;;;;;;4953427;28;20019;-87
2023/10/12 08:28:55;;;;;;;0.60;0.20;;;13.60;99.90;;;;;;4951895;28;20035;-86
2023/10/12 08:31:27;;;;;;;0.20;0.10;;;13.60;99.90;;;;;;4953557;28;20396;-86
2023/10/12 08:34:03;;;;;;;0.85;0.20;;;13.60;99.90;;;;;;4968279;28;20031;-85
2023/10/12 08:36:29;;;;;;;1.17;0.10;;;13.70;99.90;;;;;;4965400;28;20038;-85
2023/10/12 08:38:55;;;;;;;0.82;0.20;;;13.70;99.90;;;;;;4953349;28;20247;-84
2023/10/12 08:43:59;;;;;;;0.82;0.30;;;13.60;99.90;;;;;;4951055;28;20510;-84
2023/10/12 08:49:34;;;;;;;0.95;0.30;;;13.70;99.90;;;;;;4941379;28;20125;-85
2023/10/12 08:52:07;;;;;;;0.90;0.30;;;13.70;99.90;;;;;;4951046;28;20027;-84
2023/10/12 08:54:37;;;;;;;0.60;0.20;;;13.60;99.90;;;;;;4956016;28;20114;-90
2023/10/12 08:57:38;;;;;;;0.60;0.20;;;13.70;99.90;;;;;;4952829;28;20023;-85
2023/10/12 09:03:08;;;;;;;1.25;0.30;;;13.70;99.90;;;;;;4968394;28;20042;-87
2023/10/12 09:05:34;;;;;;;0.68;0.20;;;13.60;99.90;;;;;;4973079;28;20046;-86
2023/10/12 09:08:39;;;;;;;0.80;0.30;;;13.70;99.90;;;;;;4935019;28;20054;-86
2023/10/12 09:11:02;;;;;;;0.60;0.28;;;13.80;99.90;;;;;;4970154;28;20360;-85
2023/10/12 09:13:30;;;;;;;0.75;0.30;;;13.80;99.90;;;;;;4974175;28;20041;-85
2023/10/12 09:15:59;;;;;;;0.95;0.30;;;13.90;99.90;;;;;;4953965;28;20034;-85
2023/10/12 09:18:43;;;;;;;1.83;0.30;;;13.90;99.90;;;;;;4968946;28;20042;-87
2023/10/12 09:23:48;;;;;;;1.00;0.40;;;13.80;99.90;;;;;;4971979;28;20038;-89
2023/10/12 09:28:58;;;;;;;0.70;0.30;;;13.80;99.90;;;;;;4969457;28;20027;-88
2023/10/12 09:36:38;;;;;;;0.68;0.20;;;13.80;99.90;;;;;;4972098;28;20041;-87
2023/10/12 09:39:11;;;;;;;0.52;0.20;;;13.90;99.90;;;;;;4950363;28;20027;-86
2023/10/12 09:41:54;;;;;;;1.08;0.10;;;13.90;99.90;;;;;;4965293;28;20046;-87
2023/10/12 09:44:26;;;;;;;0.20;0.10;;;13.90;99.90;;;;;;4952752;28;20041;-86
2023/10/12 09:46:55;;;;;;;0.38;0.13;;;13.90;99.90;;;;;;4969947;28;20038;-85
2023/10/12 09:49:23;;;;;;;0.20;0.10;;;13.90;99.90;;;;;;4970811;28;20030;-86
2023/10/12 09:51:54;;;;;;;0.57;0.10;;;14.00;99.90;;;;;;4958857;28;20042;-87
2023/10/12 09:54:53;;;;;;;0.40;0.10;;;14.00;99.90;;;;;;4968163;28;20023;-86
2023/10/12 09:57:26;;;;;;;0.30;0.10;;;14.10;99.90;;;;;;4949522;28;20034;-86
2023/10/12 10:00:18;;;;;;;0.20;0.10;;;14.10;99.90;;;;;;4954079;28;20030;-86
2023/10/12 10:02:49;;;;;;;0.43;0.10;;;14.20;99.90;;;;;;4950266;28;20023;-88
2023/10/12 10:07:56;;;;;;;0.50;0.10;;;14.30;99.90;;;;;;4954587;28;20038;-87
2023/10/12 10:10:35;;;;;;;0.17;0.10;;;14.20;99.90;;;;;;4951545;28;20081;-89
2023/10/12 10:13:12;;;;;;;0.35;0.05;;;14.20;99.90;;;;;;4962972;28;20460;-86
2023/10/12 10:15:56;;;;;;;0.30;0.10;;;14.20;99.90;;;;;;4968380;28;20118;-86
2023/10/12 10:18:26;;;;;;;1.10;0.10;;;14.20;99.90;;;;;;4954098;28;20499;-86
2023/10/12 10:20:56;;;;;;;0.47;0.10;;;14.30;99.90;;;;;;4955251;28;20775;-86
2023/10/12 10:23:22;;;;;;;;;;;14.30;99.90;;;;;;4950358;28;20035;-88
2023/10/12 10:25:56;;;;;;;1.50;0.30;;;14.30;99.90;;;;;;4958356;28;20046;-86
2023/10/12 10:28:32;;;;;;;0.57;0.20;;;14.20;99.90;;;;;;4964120;28;20120;-86
2023/10/12 10:31:01;;;;;;;0.38;0.15;;;14.30;99.90;;;;;;4939411;28;20030;-85
2023/10/12 10:33:28;;;;;;;0.45;0.10;;;14.30;99.90;;;;;;4934415;28;20122;-86
2023/10/12 10:36:25;;;;;;;0.50;0.10;;;14.40;99.90;;;;;;4949531;28;20046;-85
2023/10/12 10:38:55;;;;;;;0.28;0.10;;;14.40;99.90;;;;;;4964560;28;20019;-87
2023/10/12 10:41:23;;;;;;;0.40;0.10;;;14.30;99.90;;;;;;4963830;28;20096;-86
2023/10/12 10:43:53;;;;;;;0.57;0.20;;;14.40;99.90;;;;;;4976583;28;20049;-86
2023/10/12 10:46:21;;;;;;;0.43;0.20;;;14.50;99.90;;;;;;4949479;28;20023;-83
2023/10/12 10:48:49;;;;;;;0.85;0.25;;;14.50;99.90;;;;;;4963229;28;20114;-86
2023/10/12 10:51:19;;;;;;;0.95;0.20;;;14.60;99.90;;;;;;4948764;28;20373;-87
2023/10/12 10:53:54;;;;;;;0.85;0.20;;;14.80;99.90;;;;;;4948366;28;20039;-85
2023/10/12 10:56:44;;;;;;;0.52;0.20;;;14.80;99.90;;;;;;4948133;28;20031;-86
2023/10/12 10:59:13;;;;;;;0.60;0.22;;;14.90;99.90;;;;;;4962067;28;20098;-87
2023/10/12 11:01:52;;;;;;;0.70;0.30;;;14.90;99.90;;;;;;4949056;28;20045;-86
2023/10/12 11:04:26;;;;;;;0.77;0.20;;;15.00;99.90;;;;;;4967729;28;20101;-86
2023/10/12 11:06:53;;;;;;;0.52;0.20;;;15.00;99.90;;;;;;4956127;28;20023;-87
2023/10/12 11:09:29;;;;;;;0.80;0.32;;;15.10;99.90;;;;;;4963777;28;20034;-87
2023/10/12 11:11:58;;;;;;;0.95;0.30;;;15.10;99.90;;;;;;4972970;28;20412;-86
2023/10/12 11:14:25;;;;;;;1.42;0.40;;;15.10;99.90;;;;;;4973454;28;20357;-86
2023/10/12 11:16:51;;;;;;;1.10;0.45;;;15.20;99.90;;;;;;4948096;28;20048;-85
2023/10/12 11:19:23;;;;;;;1.02;0.40;;;15.20;99.90;;;;;;4950634;28;20065;-86
2023/10/12 11:21:52;;;;;;;1.27;0.40;;;15.30;99.90;;;;;;4933171;28;20054;-86
2023/10/12 11:24:20;;;;;;;1.23;0.40;;;15.30;99.90;;;;;;4963932;28;20117;-86
2023/10/12 11:26:55;;;;;;;1.50;0.70;;;15.50;99.90;;;;;;4933097;28;20038;-87
2023/10/12 11:29:24;;;;;;;1.00;0.50;;;15.50;99.90;;;;;;4961859;28;20081;-87
2023/10/12 11:32:11;;;;;;;1.15;0.50;;;15.60;99.90;;;;;;4945956;28;20388;-87
2023/10/12 11:34:57;;;;;;;1.60;0.70;;;15.70;99.90;;;;;;4949467;28;20027;-87
2023/10/12 11:37:26;;;;;;;1.60;0.70;;;15.80;99.90;;;;;;4955526;28;20034;-87
2023/10/12 11:39:52;;;;;;;2.20;0.90;;;15.80;99.90;;;;;;4952562;28;20082;-87
2023/10/12 11:42:18;;;;;;;1.90;0.80;;;15.90;99.90;;;;;;4948547;28;20033;-86
2023/10/12 11:44:46;;;;;;;1.83;0.85;;;15.90;99.90;;;;;;4936305;28;20072;-87
2023/10/12 11:47:37;;;;;;;3.25;1.05;;;15.90;99.90;;;;;;4966209;28;20110;-87
2023/10/12 11:50:04;;;;;;;1.80;0.90;;;16.00;99.90;;;;;;4935438;28;20034;-86
2023/10/12 11:52:34;;;;;;;2.08;1.20;;;16.00;99.90;;;;;;4952794;28;20451;-88
2023/10/12 11:55:20;;;;;;;3.45;1.70;;;16.00;99.90;;;;;;4976147;28;20043;-86
2023/10/12 11:57:54;;;;;;;2.38;1.30;;;16.00;99.90;;;;;;4942697;28;20042;-87
2023/10/12 12:00:29;;;;;;;3.78;1.58;;;16.00;99.90;;;;;;4947588;28;20038;-87
2023/10/12 12:03:02;;;;;;;1.88;0.93;;;16.00;99.90;;;;;;4960507;28;20034;-91
2023/10/12 12:05:33;;;;;;;2.78;1.55;;;16.00;99.90;;;;;;4958284;28;20045;-87
2023/10/12 12:08:05;;;;;;;4.25;1.55;;;15.90;99.90;;;;;;4967154;28;20035;-89
2023/10/12 12:10:38;;;;;;;2.83;1.88;;;15.90;99.90;;;;;;4948531;28;20109;-87
2023/10/12 12:13:12;;;;;;;4.25;2.42;;;15.90;99.90;;;;;;4930815;28;20030;-88
2023/10/12 12:15:43;;;;;;;3.38;1.92;;;16.00;99.90;;;;;;4951526;28;20045;-91
2023/10/12 12:18:17;;;;;;;3.13;1.77;;;16.00;99.90;;;;;;4971432;28;20415;-87
2023/10/12 12:20:44;;;;;;;3.88;2.58;;;16.00;99.90;;;;;;4961168;28;20122;-92
2023/10/12 12:23:13;;;;;;;5.60;2.28;;;15.90;99.90;;;;;;4946741;28;20094;-88
2023/10/12 12:25:40;;;;;;;4.47;1.83;;;15.90;99.90;;;;;;4977743;28;20039;-86
2023/10/12 12:28:21;;;;;;;4.03;2.08;;;15.90;99.90;;;;;;4950551;28;20106;-88
2023/10/12 12:30:51;;;;;;;3.15;1.90;;;15.90;99.90;;;;;;4967621;28;20399;-87
2023/10/12 12:33:18;;;;;;;3.40;2.08;;;15.90;99.90;;;;;;4953750;28;20380;-86
2023/10/12 12:35:48;;;;;;;3.72;2.13;;;15.90;99.90;;;;;;4952111;28;20034;-90
2023/10/12 12:38:30;;;;;;;;;;;15.90;99.90;;;;;;4968987;28;20079;-86
2023/10/12 12:40:57;;;;;;;2.85;1.52;;;15.90;99.90;;;;;;4938120;28;19977;-89
2023/10/12 12:43:23;;;;;;;4.63;1.80;;;15.90;99.90;;;;;;4951346;28;20035;-86
2023/10/12 12:45:49;;;;;;;3.30;2.28;;;15.90;99.90;;;;;;4950835;28;20504;-87
2023/10/12 12:48:14;;;;;;;4.57;2.63;;;15.90;99.90;;;;;;4951878;28;20444;-90
2023/10/12 12:50:43;;;;;;;3.15;2.33;;;15.90;99.90;;;;;;4967527;28;20053;-90
2023/10/12 12:53:11;;;;;;;4.65;2.72;;;16.00;99.90;;;;;;4969015;28;20019;-86
2023/10/12 12:55:38;;;;;;;3.25;2.65;;;16.00;99.90;;;;;;4982983;28;20051;-87
2023/10/12 12:58:14;;;;;;;4.82;2.70;;;16.00;99.90;;;;;;4978953;28;20034;-87
2023/10/12 13:00:40;;;;;;;3.80;2.60;;;16.00;99.90;;;;;;4950487;28;20042;-87
2023/10/12 13:03:09;;;;;;;3.80;2.75;;;16.00;99.90;;;;;;4939383;28;20029;-88
2023/10/12 13:05:34;;;;;;;5.13;2.90;;;16.10;99.90;;;;;;4955370;28;20204;-89
2023/10/12 13:08:00;;;;;;;4.22;3.03;;;16.10;99.90;;;;;;4938094;28;20534;-88
2023/10/12 13:10:26;;;;;;;3.72;2.65;;;16.00;99.90;;;;;;4939592;28;20034;-88
2023/10/12 13:12:53;;;;;;;3.65;2.53;;;16.00;99.90;;;;;;4967345;28;20023;-89
2023/10/12 13:15:19;;;;;;;6.20;2.72;;;16.00;99.90;;;;;;4935515;28;20035;-87
2023/10/12 13:17:44;;;;;;;6.97;3.03;;;16.00;99.90;;;;;;4951492;28;20107;-86
2023/10/12 13:20:21;;;;;;;4.50;2.80;;;16.10;99.90;;;;;;4956248;28;20132;-88
2023/10/12 13:22:47;;;;;;;4.82;2.33;;;16.10;99.90;;;;;;4953951;28;20174;-88
2023/10/12 13:25:14;;;;;;;4.28;2.55;;;16.10;99.90;;;;;;4970285;28;20196;-87
2023/10/12 13:27:40;;;;;;;2.97;2.47;;;16.00;99.90;;;;;;4937762;28;20019;-86
2023/10/12 13:30:09;;;;;;;3.92;2.17;;;16.00;99.90;;;;;;4968406;28;20506;-90
2023/10/12 13:32:38;;;;;;;4.28;2.83;;;16.10;99.90;;;;;;4953155;28;20049;-90
2023/10/12 13:37:48;;;;;;;4.18;2.30;;;16.10;99.90;;;;;;4952698;28;20031;-87
2023/10/12 13:40:17;;;;;;;4.35;3.22;;;16.10;99.90;;;;;;4937266;28;20033;-87
2023/10/12 13:42:43;;;;;;;3.90;2.55;;;16.10;99.90;;;;;;4958619;28;20456;-87
2023/10/12 13:45:13;;;;;;;3.63;2.83;;;16.10;99.90;;;;;;4969736;28;20125;-87
2023/10/12 13:47:42;;;;;;;5.97;3.03;;;16.00;99.90;;;;;;4968928;28;20388;-87
2023/10/12 13:50:11;;;;;;;5.32;2.67;;;16.00;99.90;;;;;;4935662;28;20141;-88
2023/10/12 13:52:38;;;;;;;4.68;2.72;;;16.10;99.90;;;;;;4936998;28;20031;-89
2023/10/12 13:55:12;;;;;;;5.78;3.75;;;16.00;99.90;;;;;;4971514;28;20035;-87
2023/10/12 13:57:50;;;;;;;5.00;2.83;;;16.00;99.90;;;;;;4935576;28;20094;-86
2023/10/12 14:00:22;;;;;;;4.43;3.15;;;16.10;99.90;;;;;;4949648;28;20053;-93
2023/10/12 14:02:54;;;;;;;4.32;3.17;;;16.00;99.90;;;;;;4961226;28;20027;-87
2023/10/12 14:05:24;;;;;;;3.35;3.00;;;16.00;99.90;;;;;;4948920;28;20039;-89
2023/10/12 14:08:00;;;;;;;5.25;3.38;;;16.00;99.90;;;;;;4951284;28;20460;-86
2023/10/12 14:10:26;;;;;;;4.55;3.35;;;16.00;99.90;;;;;;4957053;28;20045;-91
2023/10/12 14:12:56;;;;;;;5.18;3.47;;;16.00;99.90;;;;;;4954098;28;20024;-88
2023/10/12 14:15:28;;;;;;;3.92;2.80;;;16.00;99.90;;;;;;4950855;28;20033;-86
2023/10/12 14:17:54;;;;;;;3.67;2.55;;;16.00;99.90;;;;;;4969230;28;20480;-86
2023/10/12 14:20:26;;;;;;;3.78;2.85;;;16.10;99.90;;;;;;4954011;28;20034;-86
2023/10/12 14:22:57;;;;;;;4.93;2.65;;;16.10;99.90;;;;;;4954789;28;20186;-86
2023/10/12 14:25:30;;;;;;;4.60;2.88;;;16.00;99.90;;;;;;4936074;28;20412;-87
2023/10/12 14:28:00;;;;;;;7.25;3.40;;;16.00;99.90;;;;;;4955286;28;20038;-85
2023/10/12 14:30:29;;;;;;;4.25;2.80;;;16.00;99.90;;;;;;4955602;28;20042;-87
2023/10/12 14:33:02;;;;;;;5.57;3.13;;;16.00;99.90;;;;;;4958448;28;20031;-87
2023/10/12 14:35:37;;;;;;;5.75;3.25;;;16.00;99.90;;;;;;4965547;28;20034;-86
2023/10/12 14:38:07;;;;;;;5.13;3.13;;;16.00;99.90;;;;;;4957916;28;20066;-86
2023/10/12 14:40:35;;;;;;;4.28;2.97;;;16.00;99.90;;;;;;4951265;28;20126;-86
2023/10/12 14:43:06;;;;;;;5.45;3.80;;;16.00;99.90;;;;;;4953905;28;20401;-86
2023/10/12 14:45:45;;;;;;;5.65;3.35;;;16.00;99.90;;;;;;4936260;28;20432;-87
2023/10/12 14:48:11;;;;;;;5.63;3.00;;;16.00;99.90;;;;;;4976133;28;20049;-85
2023/10/12 14:50:45;;;;;;;4.10;2.97;;;16.00;99.90;;;;;;4938114;28;20041;-89
2023/10/12 14:53:21;;;;;;;6.13;3.72;;;16.00;99.90;;;;;;4941084;28;20358;-87
2023/10/12 14:55:51;;;;;;;4.50;3.47;;;16.00;99.90;;;;;;4957127;28;20029;-88
2023/10/12 14:58:26;;;;;;;4.57;3.22;;;15.90;99.90;;;;;;4956455;28;20030;-91
2023/10/12 15:00:53;;;;;;;5.50;3.10;;;15.90;99.90;;;;;;4965129;28;20039;-88
2023/10/12 15:03:22;;;;;;;3.10;2.47;;;16.00;99.90;;;;;;4968793;28;20499;-87
2023/10/12 15:05:52;;;;;;;4.05;2.63;;;16.00;99.90;;;;;;4960013;28;20396;-89
2023/10/12 15:08:26;;;;;;;4.32;2.17;;;16.10;99.90;;;;;;4956918;28;20029;-91
2023/10/12 15:10:56;;;;;;;3.72;2.53;;;16.10;99.90;;;;;;4972585;28;20026;-90
2023/10/12 15:13:26;;;;;;;4.60;2.45;;;16.10;99.90;;;;;;4933845;28;20059;-90
2023/10/12 15:15:53;;;;;;;3.65;2.08;;;16.10;99.90;;;;;;4935075;28;20035;-89